sensor_id;sensor_type;location;lat;lon;timestamp;P1;durP1;ratioP1;P2;durP2;ratioP2
15645;SDS011;7922;43.622;1.476;2024-02-28T00:01:32;5.53;;;3.73;;
15645;SDS011;7922;43.622;1.476;2024-02-28T00:03:57;5.33;;;3.93;;
15645;SDS011;7922;43.622;1.476;2024-02-28T00:06:22;7.53;;;3.97;;
15645;SDS011;7922;43.622;1.476;2024-02-28T00:08:48;7.37;;;4.43;;
15645;SDS011;7922;43.622;1.476;2024-02-28T00:11:13;8.20;;;3.73;;
15645;SDS011;7922;43.622;1.476;2024-02-28T00:13:38;6.53;;;3.83;;
15645;SDS011;7922;43.622;1.476;2024-02-28T00:16:03;6.53;;;3.43;;
15645;SDS011;7922;43.622;1.476;2024-02-28T00:18:29;5.60;;;3.43;;
15645;SDS011;7922;43.622;1.476;2024-02-28T00:20:54;7.57;;;3.67;;
15645;SDS011;7922;43.622;1.476;2024-02-28T00:23:19;6.77;;;3.50;;
15645;SDS011;7922;43.622;1.476;2024-02-28T00:25:45;7.20;;;3.33;;
15645;SDS011;7922;43.622;1.476;2024-02-28T00:28:11;6.63;;;3.50;;
15645;SDS011;7922;43.622;1.476;2024-02-28T00:30:36;7.10;;;3.73;;
15645;SDS011;7922;43.622;1.476;2024-02-28T00:33:01;5.73;;;3.10;;
15645;SDS011;7922;43.622;1.476;2024-02-28T00:35:27;4.80;;;3.37;;
15645;SDS011;7922;43.622;1.476;2024-02-28T00:37:53;6.73;;;2.93;;
15645;SDS011;7922;43.622;1.476;2024-02-28T00:40:19;6.00;;;3.57;;
15645;SDS011;7922;43.622;1.476;2024-02-28T00:42:44;5.43;;;3.57;;
15645;SDS011;7922;43.622;1.476;2024-02-28T00:45:09;7.73;;;3.40;;
15645;SDS011;7922;43.622;1.476;2024-02-28T00:47:35;9.40;;;3.37;;
15645;SDS011;7922;43.622;1.476;2024-02-28T00:50:00;5.83;;;3.10;;
15645;SDS011;7922;43.622;1.476;2024-02-28T00:52:26;7.40;;;3.93;;
15645;SDS011;7922;43.622;1.476;2024-02-28T00:54:54;6.70;;;3.07;;
15645;SDS011;7922;43.622;1.476;2024-02-28T00:57:19;6.80;;;2.97;;
15645;SDS011;7922;43.622;1.476;2024-02-28T00:59:44;10.30;;;3.43;;
15645;SDS011;7922;43.622;1.476;2024-02-28T01:02:10;7.77;;;2.87;;
15645;SDS011;7922;43.622;1.476;2024-02-28T01:04:35;3.80;;;2.90;;
15645;SDS011;7922;43.622;1.476;2024-02-28T01:07:00;5.50;;;3.23;;
15645;SDS011;7922;43.622;1.476;2024-02-28T01:09:25;6.90;;;2.70;;
15645;SDS011;7922;43.622;1.476;2024-02-28T01:11:51;5.53;;;3.17;;
15645;SDS011;7922;43.622;1.476;2024-02-28T01:14:16;5.07;;;3.23;;
15645;SDS011;7922;43.622;1.476;2024-02-28T01:16:41;8.53;;;3.10;;
15645;SDS011;7922;43.622;1.476;2024-02-28T01:19:07;6.43;;;3.00;;
15645;SDS011;7922;43.622;1.476;2024-02-28T01:21:32;6.07;;;2.80;;
15645;SDS011;7922;43.622;1.476;2024-02-28T01:23:58;6.17;;;2.90;;
15645;SDS011;7922;43.622;1.476;2024-02-28T01:26:23;6.97;;;3.00;;
15645;SDS011;7922;43.622;1.476;2024-02-28T01:28:49;9.10;;;2.83;;
15645;SDS011;7922;43.622;1.476;2024-02-28T01:31:14;6.83;;;3.20;;
15645;SDS011;7922;43.622;1.476;2024-02-28T01:33:40;5.20;;;3.07;;
15645;SDS011;7922;43.622;1.476;2024-02-28T01:36:08;5.97;;;3.07;;
15645;SDS011;7922;43.622;1.476;2024-02-28T01:38:34;6.30;;;2.70;;
15645;SDS011;7922;43.622;1.476;2024-02-28T01:40:59;5.10;;;3.40;;
15645;SDS011;7922;43.622;1.476;2024-02-28T01:43:24;7.00;;;2.87;;
15645;SDS011;7922;43.622;1.476;2024-02-28T01:45:50;8.57;;;3.07;;
15645;SDS011;7922;43.622;1.476;2024-02-28T01:48:15;3.80;;;2.50;;
15645;SDS011;7922;43.622;1.476;2024-02-28T01:50:41;5.20;;;2.47;;
15645;SDS011;7922;43.622;1.476;2024-02-28T01:53:06;12.90;;;3.00;;
15645;SDS011;7922;43.622;1.476;2024-02-28T01:55:34;5.63;;;3.20;;
15645;SDS011;7922;43.622;1.476;2024-02-28T01:58:00;6.53;;;2.83;;
15645;SDS011;7922;43.622;1.476;2024-02-28T02:00:25;6.33;;;2.83;;
15645;SDS011;7922;43.622;1.476;2024-02-28T02:02:52;6.27;;;2.90;;
15645;SDS011;7922;43.622;1.476;2024-02-28T02:05:18;6.33;;;2.80;;
15645;SDS011;7922;43.622;1.476;2024-02-28T02:07:43;5.50;;;2.30;;
15645;SDS011;7922;43.622;1.476;2024-02-28T02:10:09;7.30;;;3.00;;
15645;SDS011;7922;43.622;1.476;2024-02-28T02:12:34;8.77;;;2.63;;
15645;SDS011;7922;43.622;1.476;2024-02-28T02:14:59;7.10;;;2.70;;
15645;SDS011;7922;43.622;1.476;2024-02-28T02:17:25;6.17;;;2.60;;
15645;SDS011;7922;43.622;1.476;2024-02-28T02:19:50;6.77;;;2.80;;
15645;SDS011;7922;43.622;1.476;2024-02-28T02:22:15;7.60;;;2.87;;
15645;SDS011;7922;43.622;1.476;2024-02-28T02:24:42;8.90;;;3.10;;
15645;SDS011;7922;43.622;1.476;2024-02-28T02:27:08;8.53;;;2.87;;
15645;SDS011;7922;43.622;1.476;2024-02-28T02:29:33;5.77;;;2.70;;
15645;SDS011;7922;43.622;1.476;2024-02-28T02:31:58;5.77;;;2.63;;
15645;SDS011;7922;43.622;1.476;2024-02-28T02:34:24;4.13;;;2.63;;
15645;SDS011;7922;43.622;1.476;2024-02-28T02:36:49;4.43;;;2.70;;
15645;SDS011;7922;43.622;1.476;2024-02-28T02:39:14;9.03;;;2.83;;
15645;SDS011;7922;43.622;1.476;2024-02-28T02:41:39;5.60;;;2.80;;
15645;SDS011;7922;43.622;1.476;2024-02-28T02:44:05;6.40;;;2.90;;
15645;SDS011;7922;43.622;1.476;2024-02-28T02:46:30;7.20;;;3.13;;
15645;SDS011;7922;43.622;1.476;2024-02-28T02:48:55;5.73;;;2.60;;
15645;SDS011;7922;43.622;1.476;2024-02-28T02:51:21;7.70;;;2.63;;
15645;SDS011;7922;43.622;1.476;2024-02-28T02:53:46;7.47;;;2.60;;
15645;SDS011;7922;43.622;1.476;2024-02-28T02:56:11;4.93;;;3.43;;
15645;SDS011;7922;43.622;1.476;2024-02-28T02:58:37;8.50;;;2.80;;
15645;SDS011;7922;43.622;1.476;2024-02-28T03:01:02;4.53;;;2.63;;
15645;SDS011;7922;43.622;1.476;2024-02-28T03:03:29;5.57;;;2.60;;
15645;SDS011;7922;43.622;1.476;2024-02-28T03:05:54;6.47;;;2.90;;
15645;SDS011;7922;43.622;1.476;2024-02-28T03:08:19;5.87;;;2.30;;
15645;SDS011;7922;43.622;1.476;2024-02-28T03:10:45;4.73;;;2.67;;
15645;SDS011;7922;43.622;1.476;2024-02-28T03:13:10;6.13;;;2.80;;
15645;SDS011;7922;43.622;1.476;2024-02-28T03:15:35;6.47;;;2.50;;
15645;SDS011;7922;43.622;1.476;2024-02-28T03:18:01;6.20;;;2.80;;
15645;SDS011;7922;43.622;1.476;2024-02-28T03:20:26;5.27;;;2.57;;
15645;SDS011;7922;43.622;1.476;2024-02-28T03:22:51;6.90;;;3.23;;
15645;SDS011;7922;43.622;1.476;2024-02-28T03:25:17;3.57;;;2.50;;
15645;SDS011;7922;43.622;1.476;2024-02-28T03:27:42;8.17;;;2.60;;
15645;SDS011;7922;43.622;1.476;2024-02-28T03:30:07;5.40;;;2.53;;
15645;SDS011;7922;43.622;1.476;2024-02-28T03:32:33;5.67;;;2.60;;
15645;SDS011;7922;43.622;1.476;2024-02-28T03:34:58;4.60;;;2.80;;
15645;SDS011;7922;43.622;1.476;2024-02-28T03:37:23;6.57;;;2.67;;
15645;SDS011;7922;43.622;1.476;2024-02-28T03:39:49;6.97;;;3.10;;
15645;SDS011;7922;43.622;1.476;2024-02-28T03:42:14;6.27;;;2.90;;
15645;SDS011;7922;43.622;1.476;2024-02-28T03:44:39;7.07;;;2.70;;
15645;SDS011;7922;43.622;1.476;2024-02-28T03:47:04;6.03;;;2.37;;
15645;SDS011;7922;43.622;1.476;2024-02-28T03:49:30;4.63;;;2.60;;
15645;SDS011;7922;43.622;1.476;2024-02-28T03:51:55;7.73;;;2.70;;
15645;SDS011;7922;43.622;1.476;2024-02-28T03:54:20;5.60;;;2.70;;
15645;SDS011;7922;43.622;1.476;2024-02-28T03:56:46;6.27;;;2.50;;
15645;SDS011;7922;43.622;1.476;2024-02-28T03:59:11;8.33;;;2.90;;
15645;SDS011;7922;43.622;1.476;2024-02-28T04:01:36;4.43;;;2.50;;
15645;SDS011;7922;43.622;1.476;2024-02-28T04:04:02;6.23;;;2.50;;
15645;SDS011;7922;43.622;1.476;2024-02-28T04:06:27;3.73;;;2.30;;
15645;SDS011;7922;43.622;1.476;2024-02-28T04:08:53;6.50;;;2.77;;
15645;SDS011;7922;43.622;1.476;2024-02-28T04:11:18;3.50;;;2.43;;
15645;SDS011;7922;43.622;1.476;2024-02-28T04:13:44;6.13;;;2.47;;
15645;SDS011;7922;43.622;1.476;2024-02-28T04:16:09;3.27;;;2.47;;
15645;SDS011;7922;43.622;1.476;2024-02-28T04:18:35;5.73;;;2.60;;
15645;SDS011;7922;43.622;1.476;2024-02-28T04:21:00;5.17;;;2.53;;
15645;SDS011;7922;43.622;1.476;2024-02-28T04:23:25;7.53;;;2.63;;
15645;SDS011;7922;43.622;1.476;2024-02-28T04:25:51;7.37;;;2.43;;
15645;SDS011;7922;43.622;1.476;2024-02-28T04:28:16;2.97;;;2.10;;
15645;SDS011;7922;43.622;1.476;2024-02-28T04:30:41;3.23;;;2.23;;
15645;SDS011;7922;43.622;1.476;2024-02-28T04:33:07;5.70;;;2.50;;
15645;SDS011;7922;43.622;1.476;2024-02-28T04:35:33;4.63;;;2.60;;
15645;SDS011;7922;43.622;1.476;2024-02-28T04:37:58;5.10;;;2.60;;
15645;SDS011;7922;43.622;1.476;2024-02-28T04:40:23;6.77;;;2.53;;
15645;SDS011;7922;43.622;1.476;2024-02-28T04:42:49;6.63;;;2.50;;
15645;SDS011;7922;43.622;1.476;2024-02-28T04:45:14;6.87;;;2.57;;
15645;SDS011;7922;43.622;1.476;2024-02-28T04:47:39;5.87;;;2.60;;
15645;SDS011;7922;43.622;1.476;2024-02-28T04:50:05;6.80;;;2.53;;
15645;SDS011;7922;43.622;1.476;2024-02-28T04:52:31;4.83;;;2.80;;
15645;SDS011;7922;43.622;1.476;2024-02-28T04:54:56;6.27;;;2.77;;
15645;SDS011;7922;43.622;1.476;2024-02-28T04:57:22;6.77;;;2.60;;
15645;SDS011;7922;43.622;1.476;2024-02-28T04:59:47;4.97;;;2.70;;
15645;SDS011;7922;43.622;1.476;2024-02-28T05:02:12;7.10;;;2.83;;
15645;SDS011;7922;43.622;1.476;2024-02-28T05:04:38;7.10;;;2.80;;
15645;SDS011;7922;43.622;1.476;2024-02-28T05:07:03;5.50;;;2.30;;
15645;SDS011;7922;43.622;1.476;2024-02-28T05:09:28;6.43;;;2.40;;
15645;SDS011;7922;43.622;1.476;2024-02-28T05:11:54;8.90;;;2.27;;
15645;SDS011;7922;43.622;1.476;2024-02-28T05:14:19;6.03;;;2.73;;
15645;SDS011;7922;43.622;1.476;2024-02-28T05:16:46;4.77;;;2.37;;
15645;SDS011;7922;43.622;1.476;2024-02-28T05:19:12;6.37;;;2.60;;
15645;SDS011;7922;43.622;1.476;2024-02-28T05:21:41;5.43;;;2.33;;
15645;SDS011;7922;43.622;1.476;2024-02-28T05:24:09;3.33;;;2.47;;
15645;SDS011;7922;43.622;1.476;2024-02-28T05:26:35;8.17;;;2.50;;
15645;SDS011;7922;43.622;1.476;2024-02-28T05:29:01;7.50;;;2.87;;
15645;SDS011;7922;43.622;1.476;2024-02-28T05:31:27;6.23;;;2.73;;
15645;SDS011;7922;43.622;1.476;2024-02-28T05:33:52;4.40;;;2.60;;
15645;SDS011;7922;43.622;1.476;2024-02-28T05:36:18;9.63;;;2.90;;
15645;SDS011;7922;43.622;1.476;2024-02-28T05:38:44;4.97;;;2.30;;
15645;SDS011;7922;43.622;1.476;2024-02-28T05:41:09;5.63;;;2.40;;
15645;SDS011;7922;43.622;1.476;2024-02-28T05:43:36;6.23;;;2.40;;
15645;SDS011;7922;43.622;1.476;2024-02-28T05:46:02;7.47;;;2.87;;
15645;SDS011;7922;43.622;1.476;2024-02-28T05:48:27;5.27;;;2.60;;
15645;SDS011;7922;43.622;1.476;2024-02-28T05:50:53;8.10;;;3.03;;
15645;SDS011;7922;43.622;1.476;2024-02-28T05:53:18;5.93;;;2.97;;
15645;SDS011;7922;43.622;1.476;2024-02-28T05:55:44;5.47;;;3.13;;
15645;SDS011;7922;43.622;1.476;2024-02-28T05:58:10;3.73;;;3.33;;
15645;SDS011;7922;43.622;1.476;2024-02-28T06:00:35;6.93;;;3.07;;
15645;SDS011;7922;43.622;1.476;2024-02-28T06:03:00;4.20;;;2.60;;
15645;SDS011;7922;43.622;1.476;2024-02-28T06:05:26;5.80;;;2.57;;
15645;SDS011;7922;43.622;1.476;2024-02-28T06:07:51;7.07;;;2.93;;
15645;SDS011;7922;43.622;1.476;2024-02-28T06:10:16;4.70;;;2.77;;
15645;SDS011;7922;43.622;1.476;2024-02-28T06:12:41;6.77;;;3.23;;
15645;SDS011;7922;43.622;1.476;2024-02-28T06:15:07;6.23;;;3.40;;
15645;SDS011;7922;43.622;1.476;2024-02-28T06:17:32;12.77;;;3.50;;
15645;SDS011;7922;43.622;1.476;2024-02-28T06:19:58;7.47;;;3.53;;
15645;SDS011;7922;43.622;1.476;2024-02-28T06:22:23;5.80;;;3.03;;
15645;SDS011;7922;43.622;1.476;2024-02-28T06:24:48;3.40;;;2.70;;
15645;SDS011;7922;43.622;1.476;2024-02-28T06:27:14;3.90;;;2.30;;
15645;SDS011;7922;43.622;1.476;2024-02-28T06:29:40;6.63;;;2.67;;
15645;SDS011;7922;43.622;1.476;2024-02-28T06:32:05;6.27;;;2.70;;
15645;SDS011;7922;43.622;1.476;2024-02-28T06:34:31;7.33;;;3.20;;
15645;SDS011;7922;43.622;1.476;2024-02-28T06:36:56;8.57;;;2.73;;
15645;SDS011;7922;43.622;1.476;2024-02-28T06:39:22;4.77;;;2.67;;
15645;SDS011;7922;43.622;1.476;2024-02-28T06:41:48;7.27;;;3.07;;
15645;SDS011;7922;43.622;1.476;2024-02-28T06:44:13;6.67;;;2.57;;
15645;SDS011;7922;43.622;1.476;2024-02-28T06:46:38;5.23;;;2.80;;
15645;SDS011;7922;43.622;1.476;2024-02-28T06:49:04;7.97;;;3.03;;
15645;SDS011;7922;43.622;1.476;2024-02-28T06:51:29;3.70;;;2.17;;
15645;SDS011;7922;43.622;1.476;2024-02-28T06:53:54;8.23;;;2.83;;
15645;SDS011;7922;43.622;1.476;2024-02-28T06:56:19;3.53;;;2.10;;
15645;SDS011;7922;43.622;1.476;2024-02-28T06:58:45;5.23;;;2.30;;
15645;SDS011;7922;43.622;1.476;2024-02-28T07:01:10;4.03;;;2.83;;
15645;SDS011;7922;43.622;1.476;2024-02-28T07:03:35;5.37;;;2.33;;
15645;SDS011;7922;43.622;1.476;2024-02-28T07:06:01;4.80;;;2.47;;
15645;SDS011;7922;43.622;1.476;2024-02-28T07:08:26;4.67;;;2.40;;
15645;SDS011;7922;43.622;1.476;2024-02-28T07:10:51;3.73;;;2.30;;
15645;SDS011;7922;43.622;1.476;2024-02-28T07:13:16;6.30;;;2.50;;
15645;SDS011;7922;43.622;1.476;2024-02-28T07:15:42;5.13;;;2.40;;
15645;SDS011;7922;43.622;1.476;2024-02-28T07:18:07;6.23;;;2.63;;
15645;SDS011;7922;43.622;1.476;2024-02-28T07:20:33;6.40;;;2.47;;
15645;SDS011;7922;43.622;1.476;2024-02-28T07:22:58;8.13;;;2.63;;
15645;SDS011;7922;43.622;1.476;2024-02-28T07:25:24;2.63;;;2.40;;
15645;SDS011;7922;43.622;1.476;2024-02-28T07:27:49;6.30;;;2.70;;
15645;SDS011;7922;43.622;1.476;2024-02-28T07:30:15;5.33;;;2.50;;
15645;SDS011;7922;43.622;1.476;2024-02-28T07:32:40;3.37;;;2.23;;
15645;SDS011;7922;43.622;1.476;2024-02-28T07:35:05;7.23;;;2.70;;
15645;SDS011;7922;43.622;1.476;2024-02-28T07:37:31;6.77;;;2.87;;
15645;SDS011;7922;43.622;1.476;2024-02-28T07:39:56;4.30;;;2.63;;
15645;SDS011;7922;43.622;1.476;2024-02-28T07:42:22;7.60;;;2.70;;
15645;SDS011;7922;43.622;1.476;2024-02-28T07:44:47;6.57;;;2.20;;
15645;SDS011;7922;43.622;1.476;2024-02-28T07:47:13;4.93;;;2.03;;
15645;SDS011;7922;43.622;1.476;2024-02-28T07:49:38;4.97;;;2.30;;
15645;SDS011;7922;43.622;1.476;2024-02-28T07:52:03;8.67;;;2.50;;
15645;SDS011;7922;43.622;1.476;2024-02-28T07:54:29;3.67;;;2.70;;
15645;SDS011;7922;43.622;1.476;2024-02-28T07:56:54;5.87;;;2.50;;
15645;SDS011;7922;43.622;1.476;2024-02-28T07:59:19;5.17;;;2.90;;
15645;SDS011;7922;43.622;1.476;2024-02-28T08:01:44;4.30;;;2.50;;
15645;SDS011;7922;43.622;1.476;2024-02-28T08:04:10;5.07;;;2.30;;
15645;SDS011;7922;43.622;1.476;2024-02-28T08:06:35;5.93;;;2.87;;
15645;SDS011;7922;43.622;1.476;2024-02-28T08:09:00;5.90;;;2.33;;
15645;SDS011;7922;43.622;1.476;2024-02-28T08:11:26;9.03;;;2.80;;
15645;SDS011;7922;43.622;1.476;2024-02-28T08:13:51;4.70;;;2.17;;
15645;SDS011;7922;43.622;1.476;2024-02-28T08:16:16;6.23;;;2.57;;
15645;SDS011;7922;43.622;1.476;2024-02-28T08:18:42;5.10;;;2.50;;
15645;SDS011;7922;43.622;1.476;2024-02-28T08:21:08;2.73;;;2.40;;
15645;SDS011;7922;43.622;1.476;2024-02-28T08:23:33;5.03;;;2.53;;
15645;SDS011;7922;43.622;1.476;2024-02-28T08:25:59;5.47;;;2.60;;
15645;SDS011;7922;43.622;1.476;2024-02-28T08:28:24;5.57;;;2.37;;
15645;SDS011;7922;43.622;1.476;2024-02-28T08:30:49;5.23;;;2.70;;
15645;SDS011;7922;43.622;1.476;2024-02-28T08:33:15;7.57;;;3.27;;
15645;SDS011;7922;43.622;1.476;2024-02-28T08:35:40;3.30;;;2.23;;
15645;SDS011;7922;43.622;1.476;2024-02-28T08:38:05;6.77;;;2.90;;
15645;SDS011;7922;43.622;1.476;2024-02-28T08:40:30;5.37;;;2.37;;
15645;SDS011;7922;43.622;1.476;2024-02-28T08:42:56;7.23;;;2.43;;
15645;SDS011;7922;43.622;1.476;2024-02-28T08:45:22;2.80;;;2.07;;
15645;SDS011;7922;43.622;1.476;2024-02-28T08:47:47;10.40;;;2.73;;
15645;SDS011;7922;43.622;1.476;2024-02-28T08:50:13;4.90;;;2.27;;
15645;SDS011;7922;43.622;1.476;2024-02-28T08:52:38;5.83;;;2.57;;
15645;SDS011;7922;43.622;1.476;2024-02-28T08:55:04;5.77;;;2.60;;
15645;SDS011;7922;43.622;1.476;2024-02-28T08:57:29;4.00;;;2.20;;
15645;SDS011;7922;43.622;1.476;2024-02-28T08:59:54;6.33;;;2.70;;
15645;SDS011;7922;43.622;1.476;2024-02-28T09:02:20;5.27;;;2.50;;
15645;SDS011;7922;43.622;1.476;2024-02-28T09:04:46;3.37;;;2.17;;
15645;SDS011;7922;43.622;1.476;2024-02-28T09:07:12;7.93;;;2.90;;
15645;SDS011;7922;43.622;1.476;2024-02-28T09:09:41;4.00;;;2.40;;
15645;SDS011;7922;43.622;1.476;2024-02-28T09:12:07;3.47;;;2.23;;
15645;SDS011;7922;43.622;1.476;2024-02-28T09:14:32;4.83;;;2.47;;
15645;SDS011;7922;43.622;1.476;2024-02-28T09:16:58;4.70;;;2.70;;
15645;SDS011;7922;43.622;1.476;2024-02-28T09:19:24;5.17;;;2.80;;
15645;SDS011;7922;43.622;1.476;2024-02-28T09:21:51;8.07;;;2.73;;
15645;SDS011;7922;43.622;1.476;2024-02-28T09:24:16;7.57;;;2.60;;
15645;SDS011;7922;43.622;1.476;2024-02-28T09:26:42;3.20;;;2.17;;
15645;SDS011;7922;43.622;1.476;2024-02-28T09:29:07;4.90;;;2.43;;
15645;SDS011;7922;43.622;1.476;2024-02-28T09:31:35;7.93;;;3.30;;
15645;SDS011;7922;43.622;1.476;2024-02-28T09:34:00;4.47;;;2.17;;
15645;SDS011;7922;43.622;1.476;2024-02-28T09:36:25;4.37;;;1.97;;
15645;SDS011;7922;43.622;1.476;2024-02-28T09:38:51;3.67;;;2.30;;
15645;SDS011;7922;43.622;1.476;2024-02-28T09:41:16;4.77;;;2.13;;
15645;SDS011;7922;43.622;1.476;2024-02-28T09:43:42;7.10;;;2.80;;
15645;SDS011;7922;43.622;1.476;2024-02-28T09:46:10;6.27;;;2.30;;
15645;SDS011;7922;43.622;1.476;2024-02-28T09:48:38;7.53;;;2.77;;
15645;SDS011;7922;43.622;1.476;2024-02-28T09:51:04;6.17;;;2.80;;
15645;SDS011;7922;43.622;1.476;2024-02-28T09:53:30;4.97;;;2.20;;
15645;SDS011;7922;43.622;1.476;2024-02-28T09:55:56;5.87;;;2.43;;
15645;SDS011;7922;43.622;1.476;2024-02-28T09:58:21;4.60;;;2.53;;
15645;SDS011;7922;43.622;1.476;2024-02-28T10:00:47;4.63;;;2.43;;
15645;SDS011;7922;43.622;1.476;2024-02-28T10:03:15;6.17;;;2.90;;
15645;SDS011;7922;43.622;1.476;2024-02-28T10:05:42;7.70;;;3.07;;
15645;SDS011;7922;43.622;1.476;2024-02-28T10:08:07;7.43;;;3.23;;
15645;SDS011;7922;43.622;1.476;2024-02-28T10:10:33;6.20;;;2.87;;
15645;SDS011;7922;43.622;1.476;2024-02-28T10:12:58;6.37;;;3.10;;
15645;SDS011;7922;43.622;1.476;2024-02-28T10:15:23;7.73;;;3.40;;
15645;SDS011;7922;43.622;1.476;2024-02-28T10:17:51;6.13;;;3.27;;
15645;SDS011;7922;43.622;1.476;2024-02-28T10:20:16;5.40;;;3.30;;
15645;SDS011;7922;43.622;1.476;2024-02-28T10:22:42;5.20;;;2.87;;
15645;SDS011;7922;43.622;1.476;2024-02-28T10:25:07;5.70;;;3.20;;
15645;SDS011;7922;43.622;1.476;2024-02-28T10:27:33;5.20;;;3.27;;
15645;SDS011;7922;43.622;1.476;2024-02-28T10:29:59;3.63;;;2.93;;
15645;SDS011;7922;43.622;1.476;2024-02-28T10:32:24;5.83;;;3.80;;
15645;SDS011;7922;43.622;1.476;2024-02-28T10:34:49;5.03;;;3.70;;
15645;SDS011;7922;43.622;1.476;2024-02-28T10:37:16;5.93;;;3.87;;
15645;SDS011;7922;43.622;1.476;2024-02-28T10:39:42;6.13;;;3.93;;
15645;SDS011;7922;43.622;1.476;2024-02-28T10:42:08;5.63;;;3.83;;
15645;SDS011;7922;43.622;1.476;2024-02-28T10:44:36;4.37;;;3.17;;
15645;SDS011;7922;43.622;1.476;2024-02-28T10:47:02;5.33;;;3.07;;
15645;SDS011;7922;43.622;1.476;2024-02-28T10:49:28;5.77;;;2.80;;
15645;SDS011;7922;43.622;1.476;2024-02-28T10:51:54;4.07;;;2.63;;
15645;SDS011;7922;43.622;1.476;2024-02-28T10:54:21;5.90;;;2.90;;
15645;SDS011;7922;43.622;1.476;2024-02-28T10:56:49;7.27;;;2.80;;
15645;SDS011;7922;43.622;1.476;2024-02-28T10:59:16;6.13;;;2.63;;
15645;SDS011;7922;43.622;1.476;2024-02-28T11:01:43;4.27;;;2.87;;
15645;SDS011;7922;43.622;1.476;2024-02-28T11:04:10;7.57;;;2.47;;
15645;SDS011;7922;43.622;1.476;2024-02-28T11:06:46;5.43;;;2.63;;
15645;SDS011;7922;43.622;1.476;2024-02-28T11:09:18;3.37;;;2.60;;
15645;SDS011;7922;43.622;1.476;2024-02-28T11:11:48;3.10;;;2.33;;
15645;SDS011;7922;43.622;1.476;2024-02-28T11:14:17;5.37;;;2.60;;
15645;SDS011;7922;43.622;1.476;2024-02-28T11:16:43;4.33;;;2.83;;
15645;SDS011;7922;43.622;1.476;2024-02-28T11:19:08;5.40;;;2.77;;
15645;SDS011;7922;43.622;1.476;2024-02-28T11:21:44;4.37;;;2.67;;
15645;SDS011;7922;43.622;1.476;2024-02-28T11:24:09;5.57;;;2.87;;
15645;SDS011;7922;43.622;1.476;2024-02-28T11:26:37;8.03;;;3.80;;
15645;SDS011;7922;43.622;1.476;2024-02-28T11:29:03;5.57;;;2.40;;
15645;SDS011;7922;43.622;1.476;2024-02-28T11:31:28;6.67;;;2.30;;
15645;SDS011;7922;43.622;1.476;2024-02-28T11:33:53;8.33;;;2.87;;
15645;SDS011;7922;43.622;1.476;2024-02-28T11:36:19;4.93;;;1.90;;
15645;SDS011;7922;43.622;1.476;2024-02-28T11:38:44;4.73;;;2.37;;
15645;SDS011;7922;43.622;1.476;2024-02-28T11:41:10;3.47;;;2.10;;
15645;SDS011;7922;43.622;1.476;2024-02-28T11:43:35;4.23;;;2.40;;
15645;SDS011;7922;43.622;1.476;2024-02-28T11:46:00;4.63;;;1.90;;
15645;SDS011;7922;43.622;1.476;2024-02-28T11:48:26;3.87;;;2.10;;
15645;SDS011;7922;43.622;1.476;2024-02-28T11:50:52;4.50;;;1.90;;
15645;SDS011;7922;43.622;1.476;2024-02-28T11:53:17;4.47;;;1.97;;
15645;SDS011;7922;43.622;1.476;2024-02-28T11:55:42;2.70;;;1.70;;
15645;SDS011;7922;43.622;1.476;2024-02-28T11:58:08;2.87;;;2.00;;
15645;SDS011;7922;43.622;1.476;2024-02-28T12:00:33;4.10;;;2.10;;
15645;SDS011;7922;43.622;1.476;2024-02-28T12:03:05;5.03;;;2.13;;
15645;SDS011;7922;43.622;1.476;2024-02-28T12:05:31;3.77;;;2.70;;
15645;SDS011;7922;43.622;1.476;2024-02-28T12:07:56;5.07;;;2.00;;
15645;SDS011;7922;43.622;1.476;2024-02-28T12:10:22;4.87;;;2.20;;
15645;SDS011;7922;43.622;1.476;2024-02-28T12:12:47;2.03;;;1.80;;
15645;SDS011;7922;43.622;1.476;2024-02-28T12:15:12;3.70;;;1.63;;
15645;SDS011;7922;43.622;1.476;2024-02-28T12:17:38;3.23;;;1.80;;
15645;SDS011;7922;43.622;1.476;2024-02-28T12:20:03;3.83;;;1.93;;
15645;SDS011;7922;43.622;1.476;2024-02-28T12:22:29;6.20;;;2.00;;
15645;SDS011;7922;43.622;1.476;2024-02-28T12:24:54;2.00;;;1.60;;
15645;SDS011;7922;43.622;1.476;2024-02-28T12:27:19;3.63;;;2.00;;
15645;SDS011;7922;43.622;1.476;2024-02-28T12:29:45;2.23;;;1.70;;
15645;SDS011;7922;43.622;1.476;2024-02-28T12:32:10;2.60;;;1.60;;
15645;SDS011;7922;43.622;1.476;2024-02-28T12:34:35;5.17;;;1.67;;
15645;SDS011;7922;43.622;1.476;2024-02-28T12:37:01;2.50;;;1.50;;
15645;SDS011;7922;43.622;1.476;2024-02-28T12:39:26;4.23;;;1.70;;
15645;SDS011;7922;43.622;1.476;2024-02-28T12:41:51;2.23;;;1.53;;
15645;SDS011;7922;43.622;1.476;2024-02-28T12:44:17;2.50;;;1.57;;
15645;SDS011;7922;43.622;1.476;2024-02-28T12:46:42;4.13;;;1.47;;
15645;SDS011;7922;43.622;1.476;2024-02-28T12:49:08;1.87;;;1.40;;
15645;SDS011;7922;43.622;1.476;2024-02-28T12:54:01;2.67;;;1.50;;
15645;SDS011;7922;43.622;1.476;2024-02-28T12:56:26;3.03;;;1.73;;
15645;SDS011;7922;43.622;1.476;2024-02-28T12:58:53;3.93;;;1.90;;
15645;SDS011;7922;43.622;1.476;2024-02-28T13:01:18;4.53;;;2.20;;
15645;SDS011;7922;43.622;1.476;2024-02-28T13:03:43;2.20;;;2.00;;
15645;SDS011;7922;43.622;1.476;2024-02-28T13:06:08;1.90;;;1.40;;
15645;SDS011;7922;43.622;1.476;2024-02-28T13:08:34;1.90;;;1.23;;
15645;SDS011;7922;43.622;1.476;2024-02-28T13:10:59;2.33;;;1.20;;
15645;SDS011;7922;43.622;1.476;2024-02-28T13:13:24;3.70;;;1.63;;
15645;SDS011;7922;43.622;1.476;2024-02-28T13:15:50;2.93;;;1.50;;
15645;SDS011;7922;43.622;1.476;2024-02-28T13:18:15;3.50;;;2.03;;
15645;SDS011;7922;43.622;1.476;2024-02-28T13:20:40;3.90;;;1.70;;
15645;SDS011;7922;43.622;1.476;2024-02-28T13:23:05;2.93;;;1.97;;
15645;SDS011;7922;43.622;1.476;2024-02-28T13:25:31;1.97;;;1.50;;
15645;SDS011;7922;43.622;1.476;2024-02-28T13:27:56;2.13;;;1.50;;
15645;SDS011;7922;43.622;1.476;2024-02-28T13:30:21;4.33;;;1.70;;
15645;SDS011;7922;43.622;1.476;2024-02-28T13:32:47;4.60;;;1.60;;
15645;SDS011;7922;43.622;1.476;2024-02-28T13:35:12;3.37;;;1.47;;
15645;SDS011;7922;43.622;1.476;2024-02-28T13:37:37;2.00;;;1.37;;
15645;SDS011;7922;43.622;1.476;2024-02-28T13:40:03;1.90;;;1.27;;
15645;SDS011;7922;43.622;1.476;2024-02-28T13:42:28;1.80;;;1.13;;
15645;SDS011;7922;43.622;1.476;2024-02-28T13:44:53;1.63;;;1.37;;
15645;SDS011;7922;43.622;1.476;2024-02-28T13:47:19;1.93;;;1.10;;
15645;SDS011;7922;43.622;1.476;2024-02-28T13:49:44;2.80;;;1.20;;
15645;SDS011;7922;43.622;1.476;2024-02-28T13:52:09;2.20;;;1.10;;
15645;SDS011;7922;43.622;1.476;2024-02-28T13:54:35;3.10;;;1.27;;
15645;SDS011;7922;43.622;1.476;2024-02-28T13:57:00;1.00;;;0.90;;
15645;SDS011;7922;43.622;1.476;2024-02-28T13:59:25;3.70;;;1.23;;
15645;SDS011;7922;43.622;1.476;2024-02-28T14:01:53;2.20;;;1.07;;
15645;SDS011;7922;43.622;1.476;2024-02-28T14:04:18;2.43;;;1.30;;
15645;SDS011;7922;43.622;1.476;2024-02-28T14:06:44;1.47;;;1.00;;
15645;SDS011;7922;43.622;1.476;2024-02-28T14:09:11;3.10;;;1.20;;
15645;SDS011;7922;43.622;1.476;2024-02-28T14:11:37;1.93;;;1.10;;
15645;SDS011;7922;43.622;1.476;2024-02-28T14:14:02;2.43;;;1.10;;
15645;SDS011;7922;43.622;1.476;2024-02-28T14:16:28;1.13;;;0.90;;
15645;SDS011;7922;43.622;1.476;2024-02-28T14:18:54;1.60;;;1.30;;
15645;SDS011;7922;43.622;1.476;2024-02-28T14:21:19;1.53;;;0.80;;
15645;SDS011;7922;43.622;1.476;2024-02-28T14:23:45;1.63;;;1.23;;
15645;SDS011;7922;43.622;1.476;2024-02-28T14:26:10;2.30;;;1.10;;
15645;SDS011;7922;43.622;1.476;2024-02-28T14:28:35;1.00;;;0.90;;
15645;SDS011;7922;43.622;1.476;2024-02-28T14:31:01;2.77;;;1.00;;
15645;SDS011;7922;43.622;1.476;2024-02-28T14:33:26;2.50;;;1.23;;
15645;SDS011;7922;43.622;1.476;2024-02-28T14:35:51;1.90;;;1.03;;
15645;SDS011;7922;43.622;1.476;2024-02-28T14:38:17;1.50;;;1.20;;
15645;SDS011;7922;43.622;1.476;2024-02-28T14:40:42;1.60;;;1.23;;
15645;SDS011;7922;43.622;1.476;2024-02-28T14:43:08;1.73;;;1.00;;
15645;SDS011;7922;43.622;1.476;2024-02-28T14:45:33;3.00;;;1.00;;
15645;SDS011;7922;43.622;1.476;2024-02-28T14:47:58;2.47;;;1.40;;
15645;SDS011;7922;43.622;1.476;2024-02-28T14:50:24;1.80;;;1.10;;
15645;SDS011;7922;43.622;1.476;2024-02-28T14:52:49;2.20;;;1.50;;